sensor_id;sensor_type;location;lat;lon;timestamp;temperature;humidity
19214;DHT22;9741;51.020;5.304;2022-12-18T00:01:22;-6.30;56.00
19214;DHT22;9741;51.020;5.304;2022-12-18T00:03:52;-6.30;56.00
19214;DHT22;9741;51.020;5.304;2022-12-18T00:06:21;-6.40;55.90
19214;DHT22;9741;51.020;5.304;2022-12-18T00:08:48;-6.40;55.90
19214;DHT22;9741;51.020;5.304;2022-12-18T00:11:21;-6.50;55.90
19214;DHT22;9741;51.020;5.304;2022-12-18T00:13:49;-6.50;55.90
19214;DHT22;9741;51.020;5.304;2022-12-18T00:16:19;-6.60;55.80
19214;DHT22;9741;51.020;5.304;2022-12-18T00:18:48;-6.60;55.80
19214;DHT22;9741;51.020;5.304;2022-12-18T00:21:18;-6.70;55.70
19214;DHT22;9741;51.020;5.304;2022-12-18T00:23:48;-6.70;55.80
19214;DHT22;9741;51.020;5.304;2022-12-18T00:26:18;-6.70;55.80
19214;DHT22;9741;51.020;5.304;2022-12-18T00:28:47;-6.70;55.80
19214;DHT22;9741;51.020;5.304;2022-12-18T00:31:17;-6.80;55.80
19214;DHT22;9741;51.020;5.304;2022-12-18T00:33:44;-6.80;55.80
19214;DHT22;9741;51.020;5.304;2022-12-18T00:36:14;-6.80;55.80
19214;DHT22;9741;51.020;5.304;2022-12-18T00:38:43;-6.80;55.90
19214;DHT22;9741;51.020;5.304;2022-12-18T00:41:13;-6.80;55.90
19214;DHT22;9741;51.020;5.304;2022-12-18T00:44:02;-6.80;55.90
19214;DHT22;9741;51.020;5.304;2022-12-18T00:46:29;-6.80;55.90
19214;DHT22;9741;51.020;5.304;2022-12-18T00:48:57;-6.80;55.80
19214;DHT22;9741;51.020;5.304;2022-12-18T00:51:25;-6.80;55.80
19214;DHT22;9741;51.020;5.304;2022-12-18T00:53:54;-6.90;55.70
19214;DHT22;9741;51.020;5.304;2022-12-18T00:56:22;-6.90;55.60
19214;DHT22;9741;51.020;5.304;2022-12-18T00:58:49;-6.90;55.60
19214;DHT22;9741;51.020;5.304;2022-12-18T01:01:17;-6.90;56.20
19214;DHT22;9741;51.020;5.304;2022-12-18T01:03:45;-6.90;55.60
19214;DHT22;9741;51.020;5.304;2022-12-18T01:06:14;-7.00;55.50
19214;DHT22;9741;51.020;5.304;2022-12-18T01:08:42;-7.00;55.50
19214;DHT22;9741;51.020;5.304;2022-12-18T01:11:13;-7.00;55.50
19214;DHT22;9741;51.020;5.304;2022-12-18T01:13:41;-7.00;55.50
19214;DHT22;9741;51.020;5.304;2022-12-18T01:16:11;-7.00;55.50
19214;DHT22;9741;51.020;5.304;2022-12-18T01:18:39;-7.00;55.50
19214;DHT22;9741;51.020;5.304;2022-12-18T01:21:07;-7.00;55.40
19214;DHT22;9741;51.020;5.304;2022-12-18T01:23:35;-7.00;55.40
19214;DHT22;9741;51.020;5.304;2022-12-18T01:26:07;-7.10;55.30
19214;DHT22;9741;51.020;5.304;2022-12-18T01:28:37;-7.10;55.40
19214;DHT22;9741;51.020;5.304;2022-12-18T01:31:16;-7.10;55.30
19214;DHT22;9741;51.020;5.304;2022-12-18T01:33:45;-7.10;55.20
19214;DHT22;9741;51.020;5.304;2022-12-18T01:36:18;-7.20;55.20
19214;DHT22;9741;51.020;5.304;2022-12-18T01:38:47;-7.20;55.20
19214;DHT22;9741;51.020;5.304;2022-12-18T01:41:17;-7.20;55.20
19214;DHT22;9741;51.020;5.304;2022-12-18T01:43:51;-7.20;55.20
19214;DHT22;9741;51.020;5.304;2022-12-18T01:46:20;-7.30;55.20
19214;DHT22;9741;51.020;5.304;2022-12-18T01:48:50;-7.30;55.20
19214;DHT22;9741;51.020;5.304;2022-12-18T01:51:18;-7.30;55.70
19214;DHT22;9741;51.020;5.304;2022-12-18T01:53:47;-7.30;55.20
19214;DHT22;9741;51.020;5.304;2022-12-18T01:56:18;-7.30;55.10
19214;DHT22;9741;51.020;5.304;2022-12-18T01:58:53;-7.30;55.10
19214;DHT22;9741;51.020;5.304;2022-12-18T02:01:22;-7.30;55.00
19214;DHT22;9741;51.020;5.304;2022-12-18T02:03:51;-7.40;54.90
19214;DHT22;9741;51.020;5.304;2022-12-18T02:06:22;-7.40;54.90
19214;DHT22;9741;51.020;5.304;2022-12-18T02:09:01;-7.40;55.00
19214;DHT22;9741;51.020;5.304;2022-12-18T02:11:39;-7.40;55.00
19214;DHT22;9741;51.020;5.304;2022-12-18T02:14:18;-7.40;55.00
19214;DHT22;9741;51.020;5.304;2022-12-18T02:16:52;-7.50;54.90
19214;DHT22;9741;51.020;5.304;2022-12-18T02:19:48;-7.50;54.80
19214;DHT22;9741;51.020;5.304;2022-12-18T02:22:29;-7.50;54.80
19214;DHT22;9741;51.020;5.304;2022-12-18T02:25:15;-7.60;54.70
19214;DHT22;9741;51.020;5.304;2022-12-18T02:27:47;-7.60;54.80
19214;DHT22;9741;51.020;5.304;2022-12-18T02:30:16;-7.60;54.80
19214;DHT22;9741;51.020;5.304;2022-12-18T02:32:49;-7.60;54.80
19214;DHT22;9741;51.020;5.304;2022-12-18T02:35:20;-7.60;54.80
19214;DHT22;9741;51.020;5.304;2022-12-18T02:37:53;-7.60;54.80
19214;DHT22;9741;51.020;5.304;2022-12-18T02:40:22;-7.60;54.80
19214;DHT22;9741;51.020;5.304;2022-12-18T02:42:52;-7.60;54.80
19214;DHT22;9741;51.020;5.304;2022-12-18T02:45:20;-7.70;54.70
19214;DHT22;9741;51.020;5.304;2022-12-18T02:47:50;-7.60;54.80
19214;DHT22;9741;51.020;5.304;2022-12-18T02:50:22;-7.70;54.70
19214;DHT22;9741;51.020;5.304;2022-12-18T02:53:01;-7.60;54.80
19214;DHT22;9741;51.020;5.304;2022-12-18T02:55:39;-7.60;54.80
19214;DHT22;9741;51.020;5.304;2022-12-18T02:58:15;-7.60;54.90
19214;DHT22;9741;51.020;5.304;2022-12-18T03:00:50;-7.60;54.90
19214;DHT22;9741;51.020;5.304;2022-12-18T03:03:23;-7.60;54.80
19214;DHT22;9741;51.020;5.304;2022-12-18T03:05:55;-7.60;54.90
19214;DHT22;9741;51.020;5.304;2022-12-18T03:08:27;-7.60;54.90
19214;DHT22;9741;51.020;5.304;2022-12-18T03:10:59;-7.50;54.90
19214;DHT22;9741;51.020;5.304;2022-12-18T03:13:33;-7.50;54.90
19214;DHT22;9741;51.020;5.304;2022-12-18T03:16:03;-7.50;54.80
19214;DHT22;9741;51.020;5.304;2022-12-18T03:18:36;-7.50;54.70
19214;DHT22;9741;51.020;5.304;2022-12-18T03:21:06;-7.50;54.70
19214;DHT22;9741;51.020;5.304;2022-12-18T03:23:38;-7.50;54.70
19214;DHT22;9741;51.020;5.304;2022-12-18T03:26:10;-7.50;54.70
19214;DHT22;9741;51.020;5.304;2022-12-18T03:28:44;-7.50;54.60
19214;DHT22;9741;51.020;5.304;2022-12-18T03:31:14;-7.50;54.60
19214;DHT22;9741;51.020;5.304;2022-12-18T03:33:47;-7.50;54.50
19214;DHT22;9741;51.020;5.304;2022-12-18T03:36:18;-7.50;54.50
19214;DHT22;9741;51.020;5.304;2022-12-18T03:38:47;-7.50;54.50
19214;DHT22;9741;51.020;5.304;2022-12-18T03:41:18;-7.50;54.50
19214;DHT22;9741;51.020;5.304;2022-12-18T03:43:51;-7.60;54.90
19214;DHT22;9741;51.020;5.304;2022-12-18T03:46:25;-7.60;54.40
19214;DHT22;9741;51.020;5.304;2022-12-18T03:49:01;-7.60;54.40
19214;DHT22;9741;51.020;5.304;2022-12-18T03:51:37;-7.60;54.40
19214;DHT22;9741;51.020;5.304;2022-12-18T03:54:09;-7.60;54.40
19214;DHT22;9741;51.020;5.304;2022-12-18T03:56:42;-7.60;54.40
19214;DHT22;9741;51.020;5.304;2022-12-18T03:59:15;-7.60;55.00
19214;DHT22;9741;51.020;5.304;2022-12-18T04:01:46;-7.60;54.40
19214;DHT22;9741;51.020;5.304;2022-12-18T04:04:15;-7.70;54.30
19214;DHT22;9741;51.020;5.304;2022-12-18T04:06:45;-7.70;54.30
19214;DHT22;9741;51.020;5.304;2022-12-18T04:09:14;-7.70;54.90
19214;DHT22;9741;51.020;5.304;2022-12-18T04:11:42;-7.70;54.30
19214;DHT22;9741;51.020;5.304;2022-12-18T04:14:10;-7.70;54.30
19214;DHT22;9741;51.020;5.304;2022-12-18T04:16:39;-7.70;54.30
19214;DHT22;9741;51.020;5.304;2022-12-18T04:19:07;-7.70;54.20
19214;DHT22;9741;51.020;5.304;2022-12-18T04:21:35;-7.80;54.10
19214;DHT22;9741;51.020;5.304;2022-12-18T04:24:03;-7.80;54.10
19214;DHT22;9741;51.020;5.304;2022-12-18T04:26:31;-7.80;54.20
19214;DHT22;9741;51.020;5.304;2022-12-18T04:28:59;-7.80;54.20
19214;DHT22;9741;51.020;5.304;2022-12-18T04:31:27;-7.80;54.20
19214;DHT22;9741;51.020;5.304;2022-12-18T04:33:56;-7.80;54.10
19214;DHT22;9741;51.020;5.304;2022-12-18T04:36:24;-7.80;54.10
19214;DHT22;9741;51.020;5.304;2022-12-18T04:38:52;-7.80;54.20
19214;DHT22;9741;51.020;5.304;2022-12-18T04:41:19;-7.80;54.10
19214;DHT22;9741;51.020;5.304;2022-12-18T04:43:48;-7.80;54.10
19214;DHT22;9741;51.020;5.304;2022-12-18T04:46:15;-7.80;54.10
19214;DHT22;9741;51.020;5.304;2022-12-18T04:48:45;-7.80;54.10
19214;DHT22;9741;51.020;5.304;2022-12-18T04:51:15;-7.80;54.10
19214;DHT22;9741;51.020;5.304;2022-12-18T04:53:43;-7.80;54.10
19214;DHT22;9741;51.020;5.304;2022-12-18T04:56:13;-7.80;54.10
19214;DHT22;9741;51.020;5.304;2022-12-18T04:58:42;-7.80;54.10
19214;DHT22;9741;51.020;5.304;2022-12-18T05:01:11;-7.80;54.20
19214;DHT22;9741;51.020;5.304;2022-12-18T05:03:40;-7.80;54.20
19214;DHT22;9741;51.020;5.304;2022-12-18T05:06:07;-7.70;54.30
19214;DHT22;9741;51.020;5.304;2022-12-18T05:08:37;-7.80;54.10
19214;DHT22;9741;51.020;5.304;2022-12-18T05:11:06;-7.70;54.20
19214;DHT22;9741;51.020;5.304;2022-12-18T05:13:34;-7.70;54.20
19214;DHT22;9741;51.020;5.304;2022-12-18T05:16:03;-7.70;54.10
19214;DHT22;9741;51.020;5.304;2022-12-18T05:18:32;-7.70;54.10
19214;DHT22;9741;51.020;5.304;2022-12-18T05:21:00;-7.70;54.10
19214;DHT22;9741;51.020;5.304;2022-12-18T05:23:28;-7.70;54.20
19214;DHT22;9741;51.020;5.304;2022-12-18T05:25:58;-7.70;54.20
19214;DHT22;9741;51.020;5.304;2022-12-18T05:28:27;-7.70;54.10
19214;DHT22;9741;51.020;5.304;2022-12-18T05:30:56;-7.70;54.00
19214;DHT22;9741;51.020;5.304;2022-12-18T05:33:26;-7.70;54.00
19214;DHT22;9741;51.020;5.304;2022-12-18T05:35:54;-7.70;54.00
19214;DHT22;9741;51.020;5.304;2022-12-18T05:38:24;-7.70;54.10
19214;DHT22;9741;51.020;5.304;2022-12-18T05:40:52;-7.60;54.20
19214;DHT22;9741;51.020;5.304;2022-12-18T05:43:22;-7.60;54.20
19214;DHT22;9741;51.020;5.304;2022-12-18T05:45:50;-7.60;54.20
19214;DHT22;9741;51.020;5.304;2022-12-18T05:48:21;-7.60;54.10
19214;DHT22;9741;51.020;5.304;2022-12-18T05:50:49;-7.60;54.00
19214;DHT22;9741;51.020;5.304;2022-12-18T05:53:19;-7.60;54.00
19214;DHT22;9741;51.020;5.304;2022-12-18T05:55:47;-7.60;54.00
19214;DHT22;9741;51.020;5.304;2022-12-18T05:58:15;-7.60;54.00
19214;DHT22;9741;51.020;5.304;2022-12-18T06:00:45;-7.60;54.00
19214;DHT22;9741;51.020;5.304;2022-12-18T06:03:14;-7.60;53.90
19214;DHT22;9741;51.020;5.304;2022-12-18T06:05:44;-7.60;53.90
19214;DHT22;9741;51.020;5.304;2022-12-18T06:08:14;-7.60;53.90
19214;DHT22;9741;51.020;5.304;2022-12-18T06:10:50;-7.70;53.80
19214;DHT22;9741;51.020;5.304;2022-12-18T06:13:19;-7.70;53.90
19214;DHT22;9741;51.020;5.304;2022-12-18T06:15:48;-7.70;53.90
19214;DHT22;9741;51.020;5.304;2022-12-18T06:18:16;-7.70;53.90
19214;DHT22;9741;51.020;5.304;2022-12-18T06:20:44;-7.70;54.00
19214;DHT22;9741;51.020;5.304;2022-12-18T06:23:12;-7.60;54.10
19214;DHT22;9741;51.020;5.304;2022-12-18T06:25:39;-7.60;54.60
19214;DHT22;9741;51.020;5.304;2022-12-18T06:28:06;-7.60;54.00
19214;DHT22;9741;51.020;5.304;2022-12-18T06:30:34;-7.60;53.90
19214;DHT22;9741;51.020;5.304;2022-12-18T06:33:04;-7.70;53.70
19214;DHT22;9741;51.020;5.304;2022-12-18T06:35:32;-7.70;53.70
19214;DHT22;9741;51.020;5.304;2022-12-18T06:38:01;-7.70;53.70
19214;DHT22;9741;51.020;5.304;2022-12-18T06:40:29;-7.70;53.80
19214;DHT22;9741;51.020;5.304;2022-12-18T06:42:57;-7.70;53.90
19214;DHT22;9741;51.020;5.304;2022-12-18T06:45:25;-7.70;53.90
19214;DHT22;9741;51.020;5.304;2022-12-18T06:47:54;-7.70;53.80
19214;DHT22;9741;51.020;5.304;2022-12-18T06:50:23;-7.70;53.80
19214;DHT22;9741;51.020;5.304;2022-12-18T06:52:50;-7.70;53.70
19214;DHT22;9741;51.020;5.304;2022-12-18T06:55:18;-7.70;53.70
19214;DHT22;9741;51.020;5.304;2022-12-18T06:57:47;-7.70;53.70
19214;DHT22;9741;51.020;5.304;2022-12-18T07:00:16;-7.80;53.60
19214;DHT22;9741;51.020;5.304;2022-12-18T07:02:43;-7.80;53.50
19214;DHT22;9741;51.020;5.304;2022-12-18T07:05:11;-7.80;53.50
19214;DHT22;9741;51.020;5.304;2022-12-18T07:07:41;-7.80;53.50
19214;DHT22;9741;51.020;5.304;2022-12-18T07:10:09;-7.80;53.60
19214;DHT22;9741;51.020;5.304;2022-12-18T07:12:36;-7.90;53.50
19214;DHT22;9741;51.020;5.304;2022-12-18T07:15:06;-7.90;53.60
19214;DHT22;9741;51.020;5.304;2022-12-18T07:17:33;-7.90;53.60
19214;DHT22;9741;51.020;5.304;2022-12-18T07:20:01;-7.80;53.80
19214;DHT22;9741;51.020;5.304;2022-12-18T07:22:29;-7.80;53.80
19214;DHT22;9741;51.020;5.304;2022-12-18T07:24:59;-7.80;53.80
19214;DHT22;9741;51.020;5.304;2022-12-18T07:27:26;-7.80;53.90
19214;DHT22;9741;51.020;5.304;2022-12-18T07:29:54;-7.70;53.90
19214;DHT22;9741;51.020;5.304;2022-12-18T07:32:22;-7.70;53.90
19214;DHT22;9741;51.020;5.304;2022-12-18T07:34:49;-7.60;54.00
19214;DHT22;9741;51.020;5.304;2022-12-18T07:37:17;-7.60;54.00
19214;DHT22;9741;51.020;5.304;2022-12-18T07:39:45;-7.60;54.00
19214;DHT22;9741;51.020;5.304;2022-12-18T07:42:15;-7.50;54.10
19214;DHT22;9741;51.020;5.304;2022-12-18T07:44:58;-7.40;54.20
19214;DHT22;9741;51.020;5.304;2022-12-18T07:47:25;-7.40;54.30
19214;DHT22;9741;51.020;5.304;2022-12-18T07:49:53;-7.30;54.40
19214;DHT22;9741;51.020;5.304;2022-12-18T07:52:21;-7.10;54.60
19214;DHT22;9741;51.020;5.304;2022-12-18T07:54:49;-7.00;54.70
19214;DHT22;9741;51.020;5.304;2022-12-18T07:57:18;-6.90;54.70
19214;DHT22;9741;51.020;5.304;2022-12-18T07:59:47;-6.80;54.70
19214;DHT22;9741;51.020;5.304;2022-12-18T08:02:14;-6.70;54.70
19214;DHT22;9741;51.020;5.304;2022-12-18T08:04:42;-6.60;54.80
19214;DHT22;9741;51.020;5.304;2022-12-18T08:07:10;-6.50;54.70
19214;DHT22;9741;51.020;5.304;2022-12-18T08:09:37;-6.40;54.70
19214;DHT22;9741;51.020;5.304;2022-12-18T08:12:06;-6.30;54.70
19214;DHT22;9741;51.020;5.304;2022-12-18T08:14:35;-6.20;55.30
19214;DHT22;9741;51.020;5.304;2022-12-18T08:17:03;-6.20;54.60
19214;DHT22;9741;51.020;5.304;2022-12-18T08:19:31;-6.10;54.70
19214;DHT22;9741;51.020;5.304;2022-12-18T08:21:59;-6.10;55.20
19214;DHT22;9741;51.020;5.304;2022-12-18T08:24:27;-6.00;54.80
19214;DHT22;9741;51.020;5.304;2022-12-18T08:26:54;-5.90;54.90
19214;DHT22;9741;51.020;5.304;2022-12-18T08:29:23;-5.90;54.90
19214;DHT22;9741;51.020;5.304;2022-12-18T08:31:52;-5.80;54.90
19214;DHT22;9741;51.020;5.304;2022-12-18T08:34:19;-5.70;54.90
19214;DHT22;9741;51.020;5.304;2022-12-18T08:36:46;-5.70;54.90
19214;DHT22;9741;51.020;5.304;2022-12-18T08:39:14;-5.60;54.90
19214;DHT22;9741;51.020;5.304;2022-12-18T08:41:42;-5.50;55.10
19214;DHT22;9741;51.020;5.304;2022-12-18T08:44:30;-5.40;55.20
19214;DHT22;9741;51.020;5.304;2022-12-18T08:47:08;-5.40;55.30
19214;DHT22;9741;51.020;5.304;2022-12-18T08:49:35;-5.20;55.60
19214;DHT22;9741;51.020;5.304;2022-12-18T08:52:03;-5.10;55.60
19214;DHT22;9741;51.020;5.304;2022-12-18T08:54:31;-4.90;55.70
19214;DHT22;9741;51.020;5.304;2022-12-18T08:56:59;-4.70;55.80
19214;DHT22;9741;51.020;5.304;2022-12-18T08:59:26;-4.60;55.80
19214;DHT22;9741;51.020;5.304;2022-12-18T09:01:54;-4.50;55.80
19214;DHT22;9741;51.020;5.304;2022-12-18T09:04:23;-4.30;56.00
19214;DHT22;9741;51.020;5.304;2022-12-18T09:06:50;-4.20;55.90
19214;DHT22;9741;51.020;5.304;2022-12-18T09:09:18;-4.10;55.90
19214;DHT22;9741;51.020;5.304;2022-12-18T09:11:46;-4.00;55.90
19214;DHT22;9741;51.020;5.304;2022-12-18T09:14:14;-3.90;56.00
19214;DHT22;9741;51.020;5.304;2022-12-18T09:16:42;-3.80;56.00
19214;DHT22;9741;51.020;5.304;2022-12-18T09:19:10;-3.60;56.20
19214;DHT22;9741;51.020;5.304;2022-12-18T09:21:40;-3.60;56.20
19214;DHT22;9741;51.020;5.304;2022-12-18T09:24:12;-3.40;56.30
19214;DHT22;9741;51.020;5.304;2022-12-18T09:26:39;-3.30;56.40
19214;DHT22;9741;51.020;5.304;2022-12-18T09:29:07;-3.20;56.40
19214;DHT22;9741;51.020;5.304;2022-12-18T09:31:36;-3.00;56.60
19214;DHT22;9741;51.020;5.304;2022-12-18T09:34:03;-2.90;56.60
19214;DHT22;9741;51.020;5.304;2022-12-18T09:36:31;-2.80;56.60
19214;DHT22;9741;51.020;5.304;2022-12-18T09:39:01;-2.70;56.70
19214;DHT22;9741;51.020;5.304;2022-12-18T09:41:46;-2.60;56.70
19214;DHT22;9741;51.020;5.304;2022-12-18T09:44:21;-2.40;56.80
19214;DHT22;9741;51.020;5.304;2022-12-18T09:46:59;-2.40;56.80
19214;DHT22;9741;51.020;5.304;2022-12-18T09:49:30;-2.20;57.00
19214;DHT22;9741;51.020;5.304;2022-12-18T09:52:03;-2.10;57.10
19214;DHT22;9741;51.020;5.304;2022-12-18T09:54:37;-2.00;57.10
19214;DHT22;9741;51.020;5.304;2022-12-18T09:57:05;-1.90;57.20
19214;DHT22;9741;51.020;5.304;2022-12-18T09:59:36;-1.80;57.30
19214;DHT22;9741;51.020;5.304;2022-12-18T10:02:16;-1.70;57.30
19214;DHT22;9741;51.020;5.304;2022-12-18T10:04:43;-1.50;57.50
19214;DHT22;9741;51.020;5.304;2022-12-18T10:07:20;-1.40;57.50
19214;DHT22;9741;51.020;5.304;2022-12-18T10:09:58;-1.30;57.50
19214;DHT22;9741;51.020;5.304;2022-12-18T10:12:32;-1.20;57.60
19214;DHT22;9741;51.020;5.304;2022-12-18T10:15:07;-1.00;57.80
19214;DHT22;9741;51.020;5.304;2022-12-18T10:17:43;-0.90;57.70
19214;DHT22;9741;51.020;5.304;2022-12-18T10:20:16;-0.80;57.80
19214;DHT22;9741;51.020;5.304;2022-12-18T10:22:51;-0.70;57.80
19214;DHT22;9741;51.020;5.304;2022-12-18T10:25:27;-0.50;57.90
19214;DHT22;9741;51.020;5.304;2022-12-18T10:28:00;-0.40;57.90
19214;DHT22;9741;51.020;5.304;2022-12-18T10:30:34;-0.30;57.90
19214;DHT22;9741;51.020;5.304;2022-12-18T10:33:02;-0.30;57.80
19214;DHT22;9741;51.020;5.304;2022-12-18T10:35:30;-0.20;57.90
19214;DHT22;9741;51.020;5.304;2022-12-18T10:38:21;-0.10;58.10
19214;DHT22;9741;51.020;5.304;2022-12-18T10:40:53;0.00;58.20
19214;DHT22;9741;51.020;5.304;2022-12-18T10:43:22;0.00;58.10
19214;DHT22;9741;51.020;5.304;2022-12-18T10:46:00;0.10;58.10
19214;DHT22;9741;51.020;5.304;2022-12-18T10:48:29;0.10;58.10
19214;DHT22;9741;51.020;5.304;2022-12-18T10:50:57;0.10;58.10
19214;DHT22;9741;51.020;5.304;2022-12-18T10:53:26;0.10;58.10
19214;DHT22;9741;51.020;5.304;2022-12-18T10:55:57;0.10;58.10
19214;DHT22;9741;51.020;5.304;2022-12-18T10:58:30;0.20;58.30
19214;DHT22;9741;51.020;5.304;2022-12-18T11:01:05;0.20;58.30
19214;DHT22;9741;51.020;5.304;2022-12-18T11:03:34;0.20;58.40
19214;DHT22;9741;51.020;5.304;2022-12-18T11:06:05;0.20;58.40
19214;DHT22;9741;51.020;5.304;2022-12-18T11:08:32;0.30;58.50
19214;DHT22;9741;51.020;5.304;2022-12-18T11:11:02;0.30;58.50
19214;DHT22;9741;51.020;5.304;2022-12-18T11:13:30;0.40;58.50
19214;DHT22;9741;51.020;5.304;2022-12-18T11:15:59;0.40;58.50
19214;DHT22;9741;51.020;5.304;2022-12-18T11:18:28;0.50;58.60
19214;DHT22;9741;51.020;5.304;2022-12-18T11:21:00;0.50;58.60
19214;DHT22;9741;51.020;5.304;2022-12-18T11:23:33;0.60;58.60
19214;DHT22;9741;51.020;5.304;2022-12-18T11:26:04;0.70;58.80
19214;DHT22;9741;51.020;5.304;2022-12-18T11:28:37;0.80;58.80
19214;DHT22;9741;51.020;5.304;2022-12-18T11:31:22;0.80;58.70
19214;DHT22;9741;51.020;5.304;2022-12-18T11:34:00;0.80;58.60
19214;DHT22;9741;51.020;5.304;2022-12-18T11:36:32;0.90;58.70
19214;DHT22;9741;51.020;5.304;2022-12-18T11:39:05;1.00;58.80
19214;DHT22;9741;51.020;5.304;2022-12-18T11:41:43;1.10;58.80
19214;DHT22;9741;51.020;5.304;2022-12-18T11:44:38;1.10;58.80
19214;DHT22;9741;51.020;5.304;2022-12-18T11:47:13;1.20;58.70
19214;DHT22;9741;51.020;5.304;2022-12-18T11:49:42;1.20;58.70
19214;DHT22;9741;51.020;5.304;2022-12-18T11:52:16;1.30;58.70
19214;DHT22;9741;51.020;5.304;2022-12-18T11:54:45;1.30;58.70
19214;DHT22;9741;51.020;5.304;2022-12-18T11:57:24;1.40;58.80
19214;DHT22;9741;51.020;5.304;2022-12-18T11:59:59;1.40;58.70
19214;DHT22;9741;51.020;5.304;2022-12-18T12:02:42;1.50;58.70
19214;DHT22;9741;51.020;5.304;2022-12-18T12:05:28;1.50;58.60
19214;DHT22;9741;51.020;5.304;2022-12-18T12:08:08;1.60;58.60
19214;DHT22;9741;51.020;5.304;2022-12-18T12:10:46;1.70;58.60
19214;DHT22;9741;51.020;5.304;2022-12-18T12:13:29;1.70;58.50
19214;DHT22;9741;51.020;5.304;2022-12-18T12:16:07;1.70;58.40
19214;DHT22;9741;51.020;5.304;2022-12-18T12:18:47;1.80;58.40
19214;DHT22;9741;51.020;5.304;2022-12-18T12:21:25;1.80;58.40
19214;DHT22;9741;51.020;5.304;2022-12-18T12:23:58;1.90;58.40
19214;DHT22;9741;51.020;5.304;2022-12-18T12:26:33;1.90;58.30
19214;DHT22;9741;51.020;5.304;2022-12-18T12:29:17;1.90;58.20
19214;DHT22;9741;51.020;5.304;2022-12-18T12:32:00;1.90;58.10
19214;DHT22;9741;51.020;5.304;2022-12-18T12:34:36;2.00;58.10
19214;DHT22;9741;51.020;5.304;2022-12-18T12:37:20;2.00;58.00
19214;DHT22;9741;51.020;5.304;2022-12-18T12:39:55;2.00;57.90
19214;DHT22;9741;51.020;5.304;2022-12-18T12:42:26;2.10;57.80
19214;DHT22;9741;51.020;5.304;2022-12-18T12:45:19;2.10;57.70
19214;DHT22;9741;51.020;5.304;2022-12-18T12:47:49;2.00;57.50
19214;DHT22;9741;51.020;5.304;2022-12-18T12:50:19;2.00;57.40
19214;DHT22;9741;51.020;5.304;2022-12-18T12:52:50;2.10;57.50
19214;DHT22;9741;51.020;5.304;2022-12-18T12:55:21;2.10;57.50
19214;DHT22;9741;51.020;5.304;2022-12-18T12:57:57;2.10;57.40
19214;DHT22;9741;51.020;5.304;2022-12-18T13:00:31;2.10;57.30
19214;DHT22;9741;51.020;5.304;2022-12-18T13:03:13;2.10;57.10
19214;DHT22;9741;51.020;5.304;2022-12-18T13:05:48;2.20;57.20
19214;DHT22;9741;51.020;5.304;2022-12-18T13:08:23;2.20;57.20
19214;DHT22;9741;51.020;5.304;2022-12-18T13:10:52;2.30;57.20
19214;DHT22;9741;51.020;5.304;2022-12-18T13:13:52;2.30;57.10
19214;DHT22;9741;51.020;5.304;2022-12-18T13:16:22;2.30;57.00
19214;DHT22;9741;51.020;5.304;2022-12-18T13:18:51;2.30;57.00
19214;DHT22;9741;51.020;5.304;2022-12-18T13:21:23;2.40;57.10
19214;DHT22;9741;51.020;5.304;2022-12-18T13:23:51;2.40;57.40
19214;DHT22;9741;51.020;5.304;2022-12-18T13:26:30;2.40;56.80
19214;DHT22;9741;51.020;5.304;2022-12-18T13:29:03;2.40;56.80
19214;DHT22;9741;51.020;5.304;2022-12-18T13:31:59;2.40;56.70
19214;DHT22;9741;51.020;5.304;2022-12-18T13:34:28;2.50;56.80
19214;DHT22;9741;51.020;5.304;2022-12-18T13:37:33;2.50;56.70
19214;DHT22;9741;51.020;5.304;2022-12-18T13:39:47;2.50;56.60
19214;DHT22;9741;51.020;5.304;2022-12-18T13:42:39;2.60;56.60
19214;DHT22;9741;51.020;5.304;2022-12-18T13:48:37;2.60;56.50
19214;DHT22;9741;51.020;5.304;2022-12-18T13:51:10;2.60;56.40
19214;DHT22;9741;51.020;5.304;2022-12-18T13:53:43;2.60;56.30
19214;DHT22;9741;51.020;5.304;2022-12-18T13:56:16;2.60;56.30
19214;DHT22;9741;51.020;5.304;2022-12-18T13:58:47;2.60;56.30
19214;DHT22;9741;51.020;5.304;2022-12-18T14:01:30;2.60;56.20
19214;DHT22;9741;51.020;5.304;2022-12-18T14:04:10;2.60;56.20
19214;DHT22;9741;51.020;5.304;2022-12-18T14:06:38;2.60;56.20
19214;DHT22;9741;51.020;5.304;2022-12-18T14:09:08;2.60;56.20
19214;DHT22;9741;51.020;5.304;2022-12-18T14:11:37;2.60;56.20
19214;DHT22;9741;51.020;5.304;2022-12-18T14:14:07;2.60;56.20
19214;DHT22;9741;51.020;5.304;2022-12-18T14:16:34;2.50;56.10
19214;DHT22;9741;51.020;5.304;2022-12-18T14:19:02;2.50;56.00
19214;DHT22;9741;51.020;5.304;2022-12-18T14:21:32;2.50;56.00
19214;DHT22;9741;51.020;5.304;2022-12-18T14:24:06;2.50;56.00
19214;DHT22;9741;51.020;5.304;2022-12-18T14:26:39;2.50;56.00
19214;DHT22;9741;51.020;5.304;2022-12-18T14:29:24;2.50;56.00
19214;DHT22;9741;51.020;5.304;2022-12-18T14:32:06;2.50;56.00
19214;DHT22;9741;51.020;5.304;2022-12-18T14:34:34;2.50;56.00
19214;DHT22;9741;51.020;5.304;2022-12-18T14:37:04;2.40;55.90
19214;DHT22;9741;51.020;5.304;2022-12-18T14:39:32;2.40;55.90
19214;DHT22;9741;51.020;5.304;2022-12-18T14:42:00;2.40;55.90
19214;DHT22;9741;51.020;5.304;2022-12-18T14:44:27;2.40;55.90
19214;DHT22;9741;51.020;5.304;2022-12-18T14:46:56;2.40;56.00
19214;DHT22;9741;51.020;5.304;2022-12-18T14:49:27;2.30;55.90
19214;DHT22;9741;51.020;5.304;2022-12-18T14:51:57;2.30;55.90
19214;DHT22;9741;51.020;5.304;2022-12-18T14:54:28;2.30;55.90
19214;DHT22;9741;51.020;5.304;2022-12-18T14:57:00;2.30;55.90
19214;DHT22;9741;51.020;5.304;2022-12-18T14:59:29;2.30;55.90
19214;DHT22;9741;51.020;5.304;2022-12-18T15:02:01;2.20;55.90
19214;DHT22;9741;51.020;5.304;2022-12-18T15:04:32;2.20;55.90
19214;DHT22;9741;51.020;5.304;2022-12-18T15:07:16;2.10;55.80
19214;DHT22;9741;51.020;5.304;2022-12-18T15:10:08;2.10;55.80
19214;DHT22;9741;51.020;5.304;2022-12-18T15:12:38;2.00;56.30
19214;DHT22;9741;51.020;5.304;2022-12-18T15:18:22;2.00;55.90
19214;DHT22;9741;51.020;5.304;2022-12-18T15:20:52;1.90;55.90
19214;DHT22;9741;51.020;5.304;2022-12-18T15:23:22;1.90;55.90
19214;DHT22;9741;51.020;5.304;2022-12-18T15:25:57;1.90;56.00
19214;DHT22;9741;51.020;5.304;2022-12-18T15:28:27;1.90;56.00
19214;DHT22;9741;51.020;5.304;2022-12-18T15:31:02;1.80;55.90
19214;DHT22;9741;51.020;5.304;2022-12-18T15:33:33;1.90;56.00
19214;DHT22;9741;51.020;5.304;2022-12-18T15:36:04;1.90;56.00
19214;DHT22;9741;51.020;5.304;2022-12-18T15:38:32;1.80;55.90
19214;DHT22;9741;51.020;5.304;2022-12-18T15:41:02;1.80;55.90
19214;DHT22;9741;51.020;5.304;2022-12-18T15:43:38;1.80;55.90
19214;DHT22;9741;51.020;5.304;2022-12-18T15:46:06;1.80;55.90
19214;DHT22;9741;51.020;5.304;2022-12-18T15:48:39;1.80;55.90
19214;DHT22;9741;51.020;5.304;2022-12-18T15:51:13;1.80;56.00
19214;DHT22;9741;51.020;5.304;2022-12-18T15:53:43;1.80;56.00
19214;DHT22;9741;51.020;5.304;2022-12-18T15:56:15;1.80;56.50
19214;DHT22;9741;51.020;5.304;2022-12-18T15:59:01;1.80;55.90
19214;DHT22;9741;51.020;5.304;2022-12-18T16:01:30;1.80;55.80
19214;DHT22;9741;51.020;5.304;2022-12-18T16:03:58;1.90;55.90
19214;DHT22;9741;51.020;5.304;2022-12-18T16:06:25;1.80;55.80
19214;DHT22;9741;51.020;5.304;2022-12-18T16:08:53;1.90;55.90
19214;DHT22;9741;51.020;5.304;2022-12-18T16:11:25;1.90;55.90
19214;DHT22;9741;51.020;5.304;2022-12-18T16:14:08;1.90;55.80
19214;DHT22;9741;51.020;5.304;2022-12-18T16:16:39;1.90;55.80
19214;DHT22;9741;51.020;5.304;2022-12-18T16:19:07;2.00;55.90
19214;DHT22;9741;51.020;5.304;2022-12-18T16:21:35;2.00;55.80
19214;DHT22;9741;51.020;5.304;2022-12-18T16:24:03;2.00;55.70
19214;DHT22;9741;51.020;5.304;2022-12-18T16:26:32;2.00;55.70